createdAt,value
2018-04-11T00:00:28.454Z,0.00
2018-04-11T00:01:28.478Z,0.00
2018-04-11T00:03:21.402Z,0.00
2018-04-11T00:04:21.405Z,0.00
2018-04-11T00:06:14.311Z,0.00
2018-04-11T00:07:14.339Z,0.00
2018-04-11T00:09:07.258Z,0.00
2018-04-11T00:10:07.262Z,0.00
2018-04-11T00:12:00.188Z,0.00
2018-04-11T00:13:00.193Z,0.00
2018-04-11T00:14:53.098Z,0.00
2018-04-11T00:15:53.120Z,0.00
2018-04-11T00:17:46.045Z,0.00
2018-04-11T00:18:46.052Z,0.00
2018-04-11T00:20:38.955Z,0.00
2018-04-11T00:21:38.978Z,0.00
2018-04-11T00:23:31.907Z,0.00
2018-04-11T00:24:31.908Z,0.00
2018-04-11T00:26:24.811Z,0.00
2018-04-11T00:27:24.834Z,0.00
2018-04-11T00:29:17.760Z,0.00
2018-04-11T00:30:17.758Z,0.00
2018-04-11T00:32:10.680Z,0.00
2018-04-11T00:33:10.687Z,0.00
2018-04-11T00:35:03.588Z,0.00
2018-04-11T00:36:03.609Z,0.00
2018-04-11T00:37:56.530Z,0.00
2018-04-11T00:38:56.537Z,0.00
2018-04-11T00:40:49.443Z,0.00
2018-04-11T00:41:49.463Z,0.00
2018-04-11T00:43:42.387Z,0.00
2018-04-11T00:44:42.389Z,0.00
2018-04-11T00:46:35.304Z,0.00
2018-04-11T00:47:35.324Z,0.00
2018-04-11T00:49:28.250Z,0.00
2018-04-11T00:50:28.249Z,0.00
2018-04-11T00:52:21.176Z,0.00
2018-04-11T00:53:21.182Z,0.00
2018-04-11T00:55:14.082Z,0.00
2018-04-11T00:56:14.100Z,0.00
2018-04-11T00:58:07.027Z,0.00
2018-04-11T00:59:07.030Z,0.00
2018-04-11T01:00:59.932Z,0.00
2018-04-11T01:01:59.956Z,0.00
2018-04-11T01:03:52.877Z,0.00
2018-04-11T01:04:52.879Z,0.00
2018-04-11T01:06:45.782Z,0.00
2018-04-11T01:07:45.805Z,0.00
2018-04-11T01:09:38.735Z,0.00
2018-04-11T01:10:38.734Z,0.00
2018-04-11T01:12:31.655Z,0.00
2018-04-11T01:13:31.658Z,0.00
2018-04-11T01:15:24.560Z,0.00
2018-04-11T01:16:24.582Z,0.00
2018-04-11T01:18:17.509Z,0.00
2018-04-11T01:19:17.508Z,0.00
2018-04-11T01:21:10.411Z,0.00
2018-04-11T01:22:10.433Z,0.00
2018-04-11T01:24:03.544Z,0.00
2018-04-11T01:25:03.546Z,0.00
2018-04-11T01:26:56.455Z,0.00
2018-04-11T01:27:56.476Z,0.00
2018-04-11T01:29:49.401Z,0.00
2018-04-11T01:30:49.400Z,0.00
2018-04-11T01:32:42.326Z,0.00
2018-04-11T01:33:42.329Z,0.00
2018-04-11T01:35:35.232Z,0.00
2018-04-11T01:36:35.250Z,0.00
2018-04-11T01:38:28.175Z,0.00
2018-04-11T01:39:28.178Z,0.00
2018-04-11T01:41:21.081Z,0.00
2018-04-11T01:42:21.102Z,0.00
2018-04-11T01:44:14.021Z,0.00
2018-04-11T01:45:14.024Z,0.00
2018-04-11T01:47:06.927Z,0.00
2018-04-11T01:48:06.947Z,0.00
2018-04-11T01:49:59.871Z,0.00
2018-04-11T01:50:59.873Z,0.00
2018-04-11T01:52:52.796Z,0.00
2018-04-11T01:53:52.797Z,0.00
2018-04-11T01:55:45.705Z,0.00
2018-04-11T01:56:45.723Z,0.00
2018-04-11T01:58:38.647Z,0.00
2018-04-11T01:59:38.653Z,0.00
2018-04-11T02:01:31.555Z,0.00
2018-04-11T02:02:31.611Z,0.00
2018-04-11T02:04:24.497Z,0.00
2018-04-11T02:05:24.499Z,0.00
2018-04-11T02:07:17.406Z,0.00
2018-04-11T02:08:17.419Z,0.00
2018-04-11T02:10:10.341Z,0.00
2018-04-11T02:11:10.344Z,0.00
2018-04-11T02:13:03.263Z,0.00
2018-04-11T02:14:03.264Z,0.00
2018-04-11T02:15:56.169Z,0.00
2018-04-11T02:16:56.188Z,0.00
2018-04-11T02:18:49.112Z,0.00
2018-04-11T02:19:49.111Z,0.00
2018-04-11T02:21:42.014Z,0.00
2018-04-11T02:22:42.030Z,0.00
2018-04-11T02:24:34.954Z,0.00
2018-04-11T02:25:34.957Z,0.00
2018-04-11T02:27:27.861Z,0.00
2018-04-11T02:28:27.880Z,0.00
2018-04-11T02:30:20.800Z,0.00
2018-04-11T02:31:20.802Z,0.00
2018-04-11T02:33:13.721Z,0.00
2018-04-11T02:34:13.724Z,0.00
2018-04-11T02:36:06.757Z,0.00
2018-04-11T02:37:06.778Z,0.00
2018-04-11T02:38:59.702Z,0.00
2018-04-11T02:39:59.703Z,0.00
2018-04-11T02:41:52.610Z,0.00
2018-04-11T02:42:52.621Z,0.00
2018-04-11T02:44:45.548Z,0.00
2018-04-11T02:45:45.542Z,0.00
2018-04-11T02:47:38.443Z,0.00
2018-04-11T02:48:38.462Z,0.00
2018-04-11T02:50:31.382Z,0.00
2018-04-11T02:51:31.381Z,0.00
2018-04-11T02:53:24.303Z,0.00
2018-04-11T02:54:24.305Z,0.00
2018-04-11T02:56:17.200Z,0.00
2018-04-11T02:57:17.223Z,0.00
2018-04-11T02:59:10.137Z,0.00
2018-04-11T03:00:10.152Z,0.00
2018-04-11T03:02:03.042Z,0.00
2018-04-11T03:03:03.064Z,0.00
2018-04-11T03:04:55.978Z,0.00
2018-04-11T03:05:55.981Z,0.00
2018-04-11T03:07:48.878Z,0.00
2018-04-11T03:08:48.897Z,0.00
2018-04-11T03:10:41.818Z,0.00
2018-04-11T03:11:41.819Z,0.00
2018-04-11T03:13:34.742Z,0.00
2018-04-11T03:14:34.740Z,0.00
2018-04-11T03:16:27.641Z,0.00
2018-04-11T03:17:27.661Z,0.00
2018-04-11T03:19:20.586Z,0.00
2018-04-11T03:20:20.584Z,0.00
2018-04-11T03:22:13.479Z,0.00
2018-04-11T03:23:13.498Z,0.00
2018-04-11T03:25:06.415Z,0.00
2018-04-11T03:26:06.416Z,0.00
2018-04-11T03:27:59.319Z,0.00
2018-04-11T03:28:59.335Z,0.00
2018-04-11T03:30:52.257Z,0.00
2018-04-11T03:31:52.258Z,0.00
2018-04-11T03:33:45.177Z,0.00
2018-04-11T03:34:45.176Z,0.00
2018-04-11T03:36:38.073Z,0.00
2018-04-11T03:37:38.093Z,0.00
2018-04-11T03:39:31.011Z,0.00
2018-04-11T03:40:31.013Z,0.00
2018-04-11T03:42:23.930Z,0.00
2018-04-11T03:43:23.933Z,0.00
2018-04-11T03:45:16.856Z,0.00
2018-04-11T03:46:16.855Z,0.00
2018-04-11T03:48:09.759Z,0.00
2018-04-11T03:49:09.775Z,0.00
2018-04-11T03:51:02.697Z,0.00
2018-04-11T03:52:02.695Z,0.00
2018-04-11T03:53:55.614Z,0.00
2018-04-11T03:54:55.613Z,0.00
2018-04-11T03:56:48.516Z,0.00
2018-04-11T03:57:48.535Z,0.00
2018-04-11T03:59:41.452Z,0.00
2018-04-11T04:00:41.453Z,0.00
2018-04-11T04:02:34.354Z,0.00
2018-04-11T04:03:34.373Z,0.00
2018-04-11T04:05:27.292Z,0.00
2018-04-11T04:06:27.296Z,0.00
2018-04-11T04:08:20.195Z,4.00
2018-04-11T04:09:20.213Z,0.00
2018-04-11T04:11:13.132Z,4.00
2018-04-11T04:12:13.133Z,4.00
2018-04-11T04:14:06.054Z,4.00
2018-04-11T04:15:06.053Z,8.00
2018-04-11T04:16:58.950Z,8.00
2018-04-11T04:17:58.971Z,12.00
2018-04-11T04:19:51.888Z,16.00
2018-04-11T04:20:51.891Z,20.00
2018-04-11T04:22:44.790Z,24.00
2018-04-11T04:23:44.808Z,32.00
2018-04-11T04:25:37.725Z,40.00
2018-04-11T04:26:37.727Z,48.00
2018-04-11T04:28:30.760Z,60.00
2018-04-11T04:29:30.773Z,68.00
2018-04-11T04:31:23.699Z,80.00
2018-04-11T04:32:23.695Z,96.00
2018-04-11T04:34:16.616Z,116.00
2018-04-11T04:35:16.617Z,124.00
2018-04-11T04:37:09.512Z,152.00
2018-04-11T04:38:09.531Z,168.00
2018-04-11T04:40:02.451Z,200.00
2018-04-11T04:41:02.455Z,224.00
2018-04-11T04:42:55.357Z,264.00
2018-04-11T04:43:55.377Z,284.00
2018-04-11T04:45:48.295Z,332.00
2018-04-11T04:46:48.292Z,360.00
2018-04-11T04:48:41.194Z,412.00
2018-04-11T04:49:41.213Z,440.00
2018-04-11T04:51:34.152Z,500.00
2018-04-11T04:52:34.153Z,528.00
2018-04-11T04:54:27.074Z,588.00
2018-04-11T04:55:27.070Z,628.00
2018-04-11T04:57:19.972Z,712.00
2018-04-11T04:58:19.993Z,760.00
2018-04-11T05:00:12.907Z,872.00
2018-04-11T05:01:12.962Z,936.00
2018-04-11T05:03:06.226Z,1076.00
2018-04-11T05:04:05.885Z,1156.00
2018-04-11T05:05:58.754Z,1308.00
2018-04-11T05:06:58.750Z,1376.00
2018-04-11T05:08:51.648Z,1496.00
2018-04-11T05:09:51.665Z,1584.00
2018-04-11T05:11:44.585Z,1776.00
2018-04-11T05:12:44.584Z,1868.00
2018-04-11T05:14:37.504Z,2036.00
2018-04-11T05:15:37.505Z,2104.00
2018-04-11T05:17:30.405Z,2204.00
2018-04-11T05:18:30.425Z,2232.00
2018-04-11T05:20:23.344Z,2276.00
2018-04-11T05:21:23.342Z,2312.00
2018-04-11T05:23:16.240Z,2384.00
2018-04-11T05:24:16.261Z,2416.00
2018-04-11T05:26:09.178Z,2492.00
2018-04-11T05:27:09.180Z,2564.00
2018-04-11T05:29:02.079Z,2708.00
2018-04-11T05:30:02.105Z,2768.00
2018-04-11T05:31:55.015Z,2848.00
2018-04-11T05:32:55.015Z,2876.00
2018-04-11T05:34:47.938Z,2900.00
2018-04-11T05:35:47.936Z,2908.00
2018-04-11T05:37:40.833Z,2960.00
2018-04-11T05:38:40.854Z,3008.00
2018-04-11T05:40:33.774Z,3112.00
2018-04-11T05:41:33.773Z,3176.00
2018-04-11T05:43:26.679Z,3372.00
2018-04-11T05:44:26.696Z,3504.00
2018-04-11T05:46:19.613Z,3748.00
2018-04-11T05:47:19.616Z,3888.00
2018-04-11T05:49:12.514Z,4140.00
2018-04-11T05:50:12.533Z,4252.00
2018-04-11T05:52:05.456Z,4428.00
2018-04-11T05:53:05.492Z,4520.00
2018-04-11T05:54:58.377Z,4668.00
2018-04-11T05:55:58.376Z,4764.00
2018-04-11T05:57:51.280Z,5080.00
2018-04-11T05:58:51.302Z,5324.00
2018-04-11T06:00:44.226Z,5484.00
2018-04-11T06:01:44.225Z,5580.00
2018-04-11T06:03:37.124Z,5188.00
2018-04-11T06:04:37.141Z,5432.00
2018-04-11T06:06:30.069Z,6172.00
2018-04-11T06:07:30.065Z,6460.00
2018-04-11T06:09:22.963Z,6292.00
2018-04-11T06:10:22.984Z,6460.00
2018-04-11T06:12:15.904Z,5720.00
2018-04-11T06:13:15.906Z,5284.00
2018-04-11T06:15:08.824Z,6792.00
2018-04-11T06:16:08.823Z,7144.00
2018-04-11T06:18:01.725Z,11012.00
2018-04-11T06:19:01.746Z,10692.00
2018-04-11T06:20:54.667Z,11676.00
2018-04-11T06:21:54.671Z,11732.00
2018-04-11T06:23:47.572Z,10668.00
2018-04-11T06:24:47.591Z,10540.00
2018-04-11T06:26:40.517Z,9860.00
2018-04-11T06:27:40.518Z,8780.00
2018-04-11T06:29:33.424Z,7920.00
2018-04-11T06:30:33.444Z,7916.00
2018-04-11T06:32:26.369Z,8852.00
2018-04-11T06:33:26.374Z,8720.00
2018-04-11T06:35:19.300Z,9356.00
2018-04-11T06:36:19.298Z,9540.00
2018-04-11T06:38:12.199Z,9500.00
2018-04-11T06:39:12.220Z,9852.00
2018-04-11T06:41:05.146Z,9056.00
2018-04-11T06:42:05.164Z,9340.00
2018-04-11T06:43:58.059Z,8852.00
2018-04-11T06:44:58.075Z,8404.00
2018-04-11T06:46:50.999Z,7788.00
2018-04-11T06:47:51.000Z,8960.00
2018-04-11T06:49:43.905Z,8668.00
2018-04-11T06:50:43.927Z,7680.00
2018-04-11T06:52:36.851Z,6744.00
2018-04-11T06:53:36.862Z,6656.00
2018-04-11T06:55:29.776Z,6536.00
2018-04-11T06:56:29.780Z,6820.00
2018-04-11T06:58:22.685Z,7504.00
2018-04-11T06:59:22.732Z,7836.00
2018-04-11T07:01:15.635Z,8292.00
2018-04-11T07:02:15.633Z,8432.00
2018-04-11T07:04:08.536Z,8340.00
2018-04-11T07:05:08.557Z,8316.00
2018-04-11T07:07:01.478Z,8540.00
2018-04-11T07:08:01.485Z,8512.00
2018-04-11T07:09:54.385Z,8528.00
2018-04-11T07:10:54.408Z,8476.00
2018-04-11T07:12:47.329Z,8228.00
2018-04-11T07:13:47.331Z,8128.00
2018-04-11T07:15:40.255Z,7888.00
2018-04-11T07:16:40.256Z,7800.00
2018-04-11T07:18:33.165Z,7856.00
2018-04-11T07:19:33.187Z,8116.00
2018-04-11T07:21:26.123Z,9056.00
2018-04-11T07:22:26.119Z,9556.00
2018-04-11T07:24:19.022Z,10008.00
2018-04-11T07:25:19.043Z,10044.00
2018-04-11T07:27:11.970Z,9520.00
2018-04-11T07:28:11.974Z,9644.00
2018-04-11T07:30:04.878Z,10104.00
2018-04-11T07:31:04.897Z,11024.00
2018-04-11T07:32:57.822Z,11816.00
2018-04-11T07:33:57.827Z,11984.00
2018-04-11T07:35:50.752Z,11004.00
2018-04-11T07:36:50.750Z,10096.00
2018-04-11T07:38:43.652Z,8240.00
2018-04-11T07:39:43.676Z,7700.00
2018-04-11T07:41:36.601Z,7596.00
2018-04-11T07:42:36.606Z,7656.00
2018-04-11T07:44:29.681Z,7748.00
2018-04-11T07:45:29.705Z,7696.00
2018-04-11T07:47:22.629Z,7688.00
2018-04-11T07:48:22.630Z,7652.00
2018-04-11T07:50:15.535Z,7404.00
2018-04-11T07:51:15.557Z,7224.00
2018-04-11T07:53:08.671Z,6948.00
2018-04-11T07:54:08.670Z,6816.00
2018-04-11T07:56:01.746Z,6700.00
2018-04-11T07:57:01.748Z,6684.00
2018-04-11T07:58:54.693Z,6664.00
2018-04-11T07:59:54.736Z,6664.00
2018-04-11T08:01:47.598Z,6560.00
2018-04-11T08:02:47.602Z,5788.00
2018-04-11T08:04:40.508Z,5624.00
2018-04-11T08:05:40.531Z,5152.00
2018-04-11T08:07:33.454Z,4784.00
2018-04-11T08:08:33.460Z,4724.00
2018-04-11T08:10:26.362Z,4680.00
2018-04-11T08:11:26.383Z,4696.00
2018-04-11T08:13:19.308Z,4784.00
2018-04-11T08:14:19.311Z,4848.00
2018-04-11T08:16:12.247Z,4936.00
2018-04-11T08:17:12.251Z,4948.00
2018-04-11T08:19:05.154Z,5468.00
2018-04-11T08:20:05.180Z,5704.00
2018-04-11T08:21:58.556Z,6620.00
2018-04-11T08:22:58.520Z,7672.00
2018-04-11T08:24:52.010Z,9964.00
2018-04-11T08:25:51.974Z,10740.00
2018-04-11T08:27:45.453Z,11476.00
2018-04-11T08:28:45.448Z,11760.00
2018-04-11T08:30:38.369Z,11888.00
2018-04-11T08:31:38.395Z,12292.00
2018-04-11T08:33:31.855Z,11480.00
2018-04-11T08:34:31.859Z,10748.00
2018-04-11T08:36:25.323Z,8824.00
2018-04-11T08:37:25.335Z,7728.00
2018-04-11T08:39:18.258Z,6836.00
2018-04-11T08:40:18.280Z,6644.00
2018-04-11T08:42:11.744Z,6592.00
2018-04-11T08:43:11.749Z,6556.00
2018-04-11T08:45:05.192Z,6684.00
2018-04-11T08:46:05.212Z,6736.00
2018-04-11T08:47:58.681Z,6452.00
2018-04-11T08:48:58.681Z,6628.00
2018-04-11T08:50:52.127Z,6496.00
2018-04-11T08:51:52.156Z,6676.00
2018-04-11T08:53:45.607Z,6960.00
2018-04-11T08:54:45.614Z,6912.00
2018-04-11T08:56:39.075Z,7144.00
2018-04-11T08:57:39.082Z,7184.00
2018-04-11T08:59:32.519Z,6976.00
2018-04-11T09:00:32.550Z,6836.00
2018-04-11T09:02:26.010Z,6536.00
2018-04-11T09:03:26.012Z,6368.00
2018-04-11T09:05:20.535Z,6132.00
2018-04-11T09:06:20.500Z,6112.00
2018-04-11T09:08:13.960Z,5964.00
2018-04-11T09:09:13.968Z,5920.00
2018-04-11T09:11:07.408Z,5856.00
2018-04-11T09:12:07.433Z,5844.00
2018-04-11T09:14:00.461Z,5808.00
2018-04-11T09:15:00.386Z,5752.00
2018-04-11T09:16:53.847Z,5704.00
2018-04-11T09:17:53.857Z,5684.00
2018-04-11T09:19:46.782Z,5752.00
2018-04-11T09:20:46.850Z,5768.00
2018-04-11T09:22:40.271Z,5732.00
2018-04-11T09:23:40.281Z,5748.00
2018-04-11T09:25:33.716Z,5796.00
2018-04-11T09:26:33.740Z,5832.00
2018-04-11T09:28:26.687Z,5860.00
2018-04-11T09:29:26.692Z,5800.00
2018-04-11T09:31:20.134Z,5764.00
2018-04-11T09:32:20.160Z,5840.00
2018-04-11T09:34:13.109Z,6104.00
2018-04-11T09:35:13.115Z,6364.00
2018-04-11T09:37:06.061Z,7052.00
2018-04-11T09:38:06.070Z,7688.00
2018-04-11T09:39:58.997Z,8136.00
2018-04-11T09:40:59.021Z,8900.00
2018-04-11T09:42:51.971Z,10148.00
2018-04-11T09:43:51.978Z,9988.00
2018-04-11T09:45:45.935Z,10256.00
2018-04-11T09:46:45.953Z,10968.00
2018-04-11T09:48:38.903Z,11080.00
2018-04-11T09:49:38.911Z,10920.00
2018-04-11T09:51:31.841Z,10796.00
2018-04-11T09:52:31.868Z,10596.00
2018-04-11T09:54:24.817Z,9772.00
2018-04-11T09:55:24.816Z,9932.00
2018-04-11T09:57:17.765Z,11248.00
2018-04-11T09:58:17.772Z,11092.00
2018-04-11T10:00:10.703Z,10908.00
2018-04-11T10:01:10.729Z,11360.00
2018-04-11T10:03:03.678Z,12548.00
2018-04-11T10:04:03.686Z,11808.00
2018-04-11T10:05:56.612Z,9248.00
2018-04-11T10:06:56.694Z,7980.00
2018-04-11T10:08:49.582Z,6872.00
2018-04-11T10:09:49.592Z,7076.00
2018-04-11T10:11:42.520Z,8560.00
2018-04-11T10:12:42.546Z,8612.00
2018-04-11T10:14:35.490Z,8984.00
2018-04-11T10:15:35.498Z,8992.00
2018-04-11T10:17:28.444Z,9460.00
2018-04-11T10:18:28.452Z,9652.00
2018-04-11T10:20:21.381Z,9240.00
2018-04-11T10:21:21.407Z,8464.00
2018-04-11T10:23:14.356Z,6348.00
2018-04-11T10:24:14.360Z,5944.00
2018-04-11T10:26:07.802Z,6288.00
2018-04-11T10:27:07.824Z,6052.00
2018-04-11T10:29:00.774Z,7736.00
2018-04-11T10:30:00.785Z,9516.00
2018-04-11T10:31:54.228Z,11500.00
2018-04-11T10:32:54.249Z,11308.00
2018-04-11T10:34:47.703Z,9432.00
2018-04-11T10:35:47.713Z,9256.00
2018-04-11T10:37:41.176Z,10420.00
2018-04-11T10:38:41.181Z,10080.00
2018-04-11T10:40:34.211Z,9752.00
2018-04-11T10:41:34.240Z,8652.00
2018-04-11T10:43:27.697Z,8024.00
2018-04-11T10:44:27.704Z,8528.00
2018-04-11T10:46:21.148Z,9944.00
2018-04-11T10:47:21.169Z,9856.00
2018-04-11T10:49:14.113Z,10164.00
2018-04-11T10:50:15.656Z,11344.00
2018-04-11T10:52:07.969Z,13176.00
2018-04-11T10:53:07.994Z,14084.00
2018-04-11T10:55:01.050Z,14452.00
2018-04-11T10:56:01.056Z,14464.00
2018-04-11T10:57:54.000Z,14540.00
2018-04-11T10:58:54.008Z,14656.00
2018-04-11T11:00:47.506Z,14612.00
2018-04-11T11:01:47.475Z,14492.00
2018-04-11T11:03:40.933Z,14300.00
2018-04-11T11:04:40.939Z,14368.00
2018-04-11T11:06:34.381Z,14648.00
2018-04-11T11:07:34.405Z,14880.00
2018-04-11T11:09:27.352Z,14728.00
2018-04-11T11:10:27.360Z,15100.00
2018-04-11T11:12:20.803Z,14524.00
2018-04-11T11:13:20.831Z,14132.00
2018-04-11T11:15:13.877Z,13852.00
2018-04-11T11:16:13.881Z,13884.00
2018-04-11T11:18:07.342Z,13976.00
2018-04-11T11:19:07.352Z,13928.00
2018-04-11T11:21:00.280Z,13672.00
2018-04-11T11:22:00.309Z,13336.00
2018-04-11T11:23:53.351Z,12720.00
2018-04-11T11:24:53.359Z,12692.00
2018-04-11T11:26:46.287Z,13032.00
2018-04-11T11:27:46.311Z,13204.00
2018-04-11T11:29:39.775Z,13032.00
2018-04-11T11:30:39.782Z,12872.00
2018-04-11T11:32:34.244Z,12788.00
2018-04-11T11:33:34.270Z,12876.00
2018-04-11T11:35:27.216Z,12808.00
2018-04-11T11:36:27.232Z,12600.00
2018-04-11T11:38:20.683Z,12236.00
2018-04-11T11:39:20.690Z,12156.00
2018-04-11T11:41:14.134Z,12232.00
2018-04-11T11:42:14.157Z,12404.00
2018-04-11T11:44:07.106Z,13156.00
2018-04-11T11:45:07.110Z,13792.00
2018-04-11T11:47:00.551Z,14880.00
2018-04-11T11:48:00.576Z,14228.00
2018-04-11T11:49:53.521Z,12768.00
2018-04-11T11:50:53.527Z,12348.00
2018-04-11T11:52:46.454Z,11920.00
2018-04-11T11:53:46.483Z,11800.00
2018-04-11T11:55:39.940Z,11484.00
2018-04-11T11:56:39.948Z,11508.00
2018-04-11T11:58:32.895Z,11476.00
2018-04-11T11:59:32.907Z,11252.00
2018-04-11T12:01:25.831Z,10840.00
2018-04-11T12:02:25.857Z,10836.00
2018-04-11T12:04:18.800Z,11044.00
2018-04-11T12:05:18.811Z,11096.00
2018-04-11T12:07:13.277Z,11256.00
2018-04-11T12:08:13.298Z,11420.00
2018-04-11T12:10:06.244Z,11644.00
2018-04-11T12:11:06.253Z,11692.00
2018-04-11T12:12:59.191Z,11768.00
2018-04-11T12:13:59.207Z,11896.00
2018-04-11T12:15:52.155Z,12060.00
2018-04-11T12:16:52.165Z,12140.00
2018-04-11T12:18:45.109Z,12048.00
2018-04-11T12:19:45.115Z,11924.00
2018-04-11T12:21:38.044Z,11780.00
2018-04-11T12:22:38.071Z,11776.00
2018-04-11T12:24:31.013Z,11520.00
2018-04-11T12:25:31.025Z,11192.00
2018-04-11T12:27:23.950Z,10292.00
2018-04-11T12:28:23.976Z,9796.00
2018-04-11T12:30:16.923Z,9424.00
2018-04-11T12:31:16.931Z,9492.00
2018-04-11T12:33:10.374Z,9784.00
2018-04-11T12:34:10.398Z,9832.00
2018-04-11T12:36:03.856Z,9616.00
2018-04-11T12:37:03.861Z,9516.00
2018-04-11T12:38:56.811Z,9512.00
2018-04-11T12:39:56.821Z,9500.00
2018-04-11T12:41:49.986Z,9356.00
2018-04-11T12:42:49.873Z,9400.00
2018-04-11T12:44:42.823Z,9512.00
2018-04-11T12:45:42.831Z,9424.00
2018-04-11T12:47:36.265Z,9124.00
2018-04-11T12:48:36.295Z,8976.00
2018-04-11T12:50:29.240Z,8836.00
2018-04-11T12:51:29.248Z,8824.00
2018-04-11T12:53:23.714Z,8760.00
2018-04-11T12:54:23.741Z,8744.00
2018-04-11T12:56:16.782Z,9140.00
2018-04-11T12:57:16.792Z,9556.00
2018-04-11T12:59:11.276Z,10420.00
2018-04-11T13:00:11.334Z,10820.00
2018-04-11T13:02:15.522Z,11592.00
2018-04-11T13:03:15.549Z,11920.00
2018-04-11T13:05:10.055Z,12776.00
2018-04-11T13:06:10.168Z,13200.00
2018-04-11T13:08:04.377Z,13032.00
2018-04-11T13:09:03.171Z,12592.00
2018-04-11T13:10:57.864Z,11656.00
2018-04-11T13:11:57.867Z,11372.00
2018-04-11T13:13:51.124Z,11484.00
2018-04-11T13:14:50.973Z,11576.00
2018-04-11T13:16:44.135Z,11904.00
2018-04-11T13:17:44.006Z,12032.00
2018-04-11T13:19:37.524Z,11944.00
2018-04-11T13:20:37.463Z,11916.00
2018-04-11T13:22:30.580Z,11624.00
2018-04-11T13:23:30.680Z,11472.00
2018-04-11T13:25:27.000Z,11620.00
2018-04-11T13:26:25.793Z,11668.00
2018-04-11T13:28:18.947Z,10916.00
2018-04-11T13:29:18.971Z,10052.00
2018-04-11T13:31:12.111Z,9116.00
2018-04-11T13:32:12.123Z,9224.00
2018-04-11T13:34:05.030Z,9036.00
2018-04-11T13:35:05.059Z,8684.00
2018-04-11T13:36:58.548Z,8408.00
2018-04-11T13:37:58.552Z,8152.00
2018-04-11T13:39:51.492Z,7184.00
2018-04-11T13:40:51.495Z,6736.00
2018-04-11T13:42:44.635Z,6644.00
2018-04-11T13:43:44.662Z,6556.00
2018-04-11T13:45:37.597Z,6112.00
2018-04-11T13:46:37.603Z,5784.00
2018-04-11T13:48:30.643Z,4864.00
2018-04-11T13:49:30.558Z,4636.00
2018-04-11T13:51:23.623Z,4688.00
2018-04-11T13:52:23.634Z,4560.00
2018-04-11T13:54:16.751Z,5044.00
2018-04-11T13:55:16.779Z,5376.00
2018-04-11T13:57:09.933Z,5520.00
2018-04-11T13:58:09.936Z,5628.00
2018-04-11T14:00:03.091Z,5976.00
2018-04-11T14:01:03.124Z,6132.00
2018-04-11T14:02:56.230Z,6848.00
2018-04-11T14:03:56.256Z,7408.00
2018-04-11T14:05:49.419Z,8840.00
2018-04-11T14:06:49.407Z,9924.00
2018-04-11T14:08:42.548Z,11384.00
2018-04-11T14:09:42.572Z,11648.00
2018-04-11T14:11:37.247Z,11448.00
2018-04-11T14:12:36.557Z,11044.00
2018-04-11T14:14:29.709Z,10724.00
2018-04-11T14:15:29.708Z,10588.00
2018-04-11T14:17:22.858Z,10492.00
2018-04-11T14:18:22.869Z,10712.00
2018-04-11T14:20:15.798Z,11152.00
2018-04-11T14:21:15.805Z,11144.00
2018-04-11T14:23:08.719Z,10584.00
2018-04-11T14:24:08.743Z,10024.00
2018-04-11T14:26:01.674Z,9140.00
2018-04-11T14:27:01.688Z,9316.00
2018-04-11T14:28:54.597Z,8676.00
2018-04-11T14:29:54.628Z,8696.00
2018-04-11T14:31:47.560Z,8888.00
2018-04-11T14:32:47.569Z,8656.00
2018-04-11T14:34:40.501Z,8932.00
2018-04-11T14:35:40.513Z,9256.00
2018-04-11T14:37:33.641Z,10148.00
2018-04-11T14:38:33.660Z,11756.00
2018-04-11T14:40:27.078Z,13216.00
2018-04-11T14:41:27.089Z,13068.00
2018-04-11T14:43:20.505Z,11928.00
2018-04-11T14:44:20.533Z,10336.00
2018-04-11T14:46:13.626Z,7192.00
2018-04-11T14:47:13.633Z,5964.00
2018-04-11T14:49:06.598Z,4936.00
2018-04-11T14:50:06.641Z,4676.00
2018-04-11T14:51:59.530Z,3984.00
2018-04-11T14:52:59.541Z,4204.00
2018-04-11T14:54:52.451Z,6372.00
2018-04-11T14:55:52.603Z,7196.00
2018-04-11T14:57:45.410Z,8268.00
2018-04-11T14:58:45.415Z,8820.00
2018-04-11T15:00:39.353Z,9240.00
2018-04-11T15:01:39.351Z,8744.00
2018-04-11T15:03:32.789Z,6064.00
2018-04-11T15:04:32.797Z,5360.00
2018-04-11T15:06:25.731Z,5048.00
2018-04-11T15:07:25.737Z,4780.00
2018-04-11T15:09:18.662Z,4100.00
2018-04-11T15:10:18.678Z,3740.00
2018-04-11T15:12:11.609Z,2768.00
2018-04-11T15:13:11.617Z,2188.00
2018-04-11T15:15:04.533Z,1684.00
2018-04-11T15:16:04.562Z,1552.00
2018-04-11T15:17:57.483Z,1524.00
2018-04-11T15:18:57.492Z,1636.00
2018-04-11T15:20:50.612Z,2444.00
2018-04-11T15:21:50.619Z,3076.00
2018-04-11T15:23:43.536Z,4356.00
2018-04-11T15:24:43.565Z,4936.00
2018-04-11T15:26:36.486Z,5636.00
2018-04-11T15:27:36.508Z,5780.00
2018-04-11T15:29:29.405Z,5780.00
2018-04-11T15:30:29.431Z,5780.00
2018-04-11T15:32:22.361Z,5816.00
2018-04-11T15:33:22.364Z,5672.00
2018-04-11T15:35:15.276Z,5320.00
2018-04-11T15:36:15.303Z,5272.00
2018-04-11T15:38:08.228Z,5252.00
2018-04-11T15:39:08.234Z,5388.00
2018-04-11T15:41:01.168Z,6032.00
2018-04-11T15:42:01.170Z,6452.00
2018-04-11T15:43:54.079Z,6644.00
2018-04-11T15:44:54.108Z,6532.00
2018-04-11T15:46:48.029Z,6444.00
2018-04-11T15:47:48.034Z,6520.00
2018-04-11T15:49:40.944Z,6564.00
2018-04-11T15:50:40.996Z,6504.00
2018-04-11T15:52:34.421Z,6296.00
2018-04-11T15:53:34.401Z,6176.00
2018-04-11T15:55:27.809Z,5476.00
2018-04-11T15:56:27.835Z,4888.00
2018-04-11T15:58:20.961Z,4300.00
2018-04-11T15:59:20.966Z,4060.00
2018-04-11T16:01:13.900Z,4012.00
2018-04-11T16:02:13.910Z,4092.00
2018-04-11T16:04:06.838Z,4220.00
2018-04-11T16:05:06.846Z,4284.00
2018-04-11T16:06:59.772Z,4264.00
2018-04-11T16:07:59.781Z,4232.00
2018-04-11T16:09:53.185Z,4276.00
2018-04-11T16:10:53.210Z,4248.00
2018-04-11T16:12:46.651Z,4472.00
2018-04-11T16:13:46.640Z,4588.00
2018-04-11T16:15:39.573Z,4408.00
2018-04-11T16:16:39.576Z,4308.00
2018-04-11T16:18:32.484Z,4508.00
2018-04-11T16:19:32.511Z,4548.00
2018-04-11T16:21:25.618Z,5668.00
2018-04-11T16:22:25.619Z,5072.00
2018-04-11T16:24:18.548Z,4876.00
2018-04-11T16:25:18.579Z,4420.00
2018-04-11T16:27:11.634Z,4844.00
2018-04-11T16:28:11.639Z,4252.00
2018-04-11T16:30:04.771Z,3536.00
2018-04-11T16:31:04.799Z,3508.00
2018-04-11T16:32:57.946Z,3500.00
2018-04-11T16:33:57.950Z,3292.00
2018-04-11T16:35:50.907Z,3124.00
2018-04-11T16:36:50.936Z,3092.00
2018-04-11T16:38:44.086Z,3160.00
2018-04-11T16:39:44.072Z,3240.00
2018-04-11T16:41:36.999Z,3240.00
2018-04-11T16:42:36.996Z,3236.00
2018-04-11T16:44:29.906Z,3264.00
2018-04-11T16:45:29.929Z,3240.00
2018-04-11T16:47:23.056Z,3168.00
2018-04-11T16:48:23.068Z,3096.00
2018-04-11T16:50:15.972Z,3044.00
2018-04-11T16:51:15.995Z,2980.00
2018-04-11T16:53:09.176Z,2912.00
2018-04-11T16:54:09.134Z,2868.00
2018-04-11T16:56:02.050Z,2820.00
2018-04-11T16:57:02.079Z,2772.00
2018-04-11T16:58:55.148Z,2728.00
2018-04-11T16:59:55.144Z,2712.00
2018-04-11T17:01:48.566Z,2692.00
2018-04-11T17:02:48.573Z,2668.00
2018-04-11T17:04:41.507Z,2652.00
2018-04-11T17:05:41.503Z,2616.00
2018-04-11T17:07:34.434Z,2556.00
2018-04-11T17:08:34.438Z,2508.00
2018-04-11T17:10:27.607Z,2432.00
2018-04-11T17:11:27.615Z,2396.00
2018-04-11T17:13:20.530Z,2344.00
2018-04-11T17:14:20.539Z,2312.00
2018-04-11T17:16:13.669Z,2256.00
2018-04-11T17:17:13.690Z,2220.00
2018-04-11T17:19:06.844Z,2156.00
2018-04-11T17:20:06.846Z,2124.00
2018-04-11T17:21:59.779Z,2048.00
2018-04-11T17:22:59.786Z,2008.00
2018-04-11T17:24:52.824Z,1928.00
2018-04-11T17:25:52.846Z,1896.00
2018-04-11T17:27:45.773Z,1816.00
2018-04-11T17:28:45.777Z,1780.00
2018-04-11T17:30:39.889Z,1724.00
2018-04-11T17:31:39.911Z,1696.00
2018-04-11T17:33:33.184Z,1636.00
2018-04-11T17:34:33.073Z,1588.00
2018-04-11T17:36:25.962Z,1500.00
2018-04-11T17:37:25.985Z,1456.00
2018-04-11T17:39:19.408Z,1384.00
2018-04-11T17:40:19.415Z,1340.00
2018-04-11T17:42:12.338Z,1264.00
2018-04-11T17:43:12.343Z,1220.00
2018-04-11T17:45:05.264Z,1148.00